createdAt,value
2023-05-16T00:02:00.415Z,11.65
2023-05-16T00:04:27.547Z,11.67
2023-05-16T00:06:55.169Z,11.54
2023-05-16T00:09:21.896Z,11.51
2023-05-16T00:11:48.730Z,11.38
2023-05-16T00:14:15.454Z,11.51
2023-05-16T00:16:42.355Z,11.58
2023-05-16T00:19:10.412Z,11.68
2023-05-16T00:21:37.363Z,11.63
2023-05-16T00:24:04.864Z,11.62
2023-05-16T00:26:31.483Z,11.58
2023-05-16T00:28:58.162Z,11.51
2023-05-16T00:31:25.194Z,11.43
2023-05-16T00:33:51.986Z,11.39
2023-05-16T00:36:18.801Z,11.23
2023-05-16T00:38:45.811Z,11.21
2023-05-16T00:41:12.508Z,11.26
2023-05-16T00:43:39.955Z,11.24
2023-05-16T00:46:06.636Z,11.09
2023-05-16T00:48:34.005Z,11.05
2023-05-16T00:51:02.003Z,10.88
2023-05-16T00:53:28.873Z,10.79
2023-05-16T00:55:57.239Z,10.92
2023-05-16T00:58:27.169Z,10.85
2023-05-16T01:00:53.975Z,10.71
2023-05-16T01:03:21.140Z,10.66
2023-05-16T01:05:49.994Z,10.68
2023-05-16T01:08:16.683Z,10.43
2023-05-16T01:11:21.628Z,10.47
2023-05-16T01:13:51.172Z,10.52
2023-05-16T01:16:34.522Z,10.33
2023-05-16T01:19:23.234Z,10.58
2023-05-16T01:21:58.214Z,10.42
2023-05-16T01:24:43.562Z,10.59
2023-05-16T01:27:12.106Z,10.50
2023-05-16T01:29:38.753Z,10.49
2023-05-16T01:32:05.808Z,10.41
2023-05-16T01:34:33.906Z,10.34
2023-05-16T01:37:19.864Z,10.48
2023-05-16T01:39:55.715Z,10.42
2023-05-16T01:42:26.810Z,10.31
2023-05-16T01:45:06.447Z,10.24
2023-05-16T01:47:35.812Z,10.20
2023-05-16T01:50:15.905Z,10.41
2023-05-16T01:52:53.409Z,10.37
2023-05-16T01:55:47.387Z,10.26
2023-05-16T01:58:15.700Z,10.30
2023-05-16T02:00:42.880Z,10.40
2023-05-16T02:03:09.860Z,10.28
2023-05-16T02:05:36.664Z,10.45
2023-05-16T02:08:04.031Z,10.32
2023-05-16T02:10:31.604Z,10.37
2023-05-16T02:12:58.231Z,10.37
2023-05-16T02:15:27.692Z,10.37
2023-05-16T02:17:54.844Z,10.37
2023-05-16T02:20:21.542Z,10.36
2023-05-16T02:22:50.170Z,10.21
2023-05-16T02:25:16.882Z,10.25
2023-05-16T02:27:43.668Z,10.19
2023-05-16T02:30:13.635Z,10.20
2023-05-16T02:32:41.212Z,10.35
2023-05-16T02:35:08.417Z,10.33
2023-05-16T02:37:35.300Z,10.29
2023-05-16T02:40:09.165Z,10.34
2023-05-16T02:42:36.044Z,10.39
2023-05-16T02:45:06.011Z,10.18
2023-05-16T02:47:35.650Z,10.26
2023-05-16T02:50:03.759Z,10.17
2023-05-16T02:52:30.450Z,10.24
2023-05-16T02:55:16.091Z,10.24
2023-05-16T02:57:43.916Z,10.21
2023-05-16T03:00:11.596Z,10.17
2023-05-16T03:02:38.263Z,10.10
2023-05-16T03:05:06.394Z,10.22
2023-05-16T03:07:35.705Z,10.22
2023-05-16T03:10:04.593Z,10.18
2023-05-16T03:12:31.379Z,10.17
2023-05-16T03:14:57.955Z,10.16
2023-05-16T03:17:24.813Z,9.97
2023-05-16T03:19:51.466Z,9.86
2023-05-16T03:22:18.094Z,9.79
2023-05-16T03:24:45.084Z,9.72
2023-05-16T03:27:12.149Z,9.66
2023-05-16T03:29:38.751Z,9.64
2023-05-16T03:32:09.852Z,9.36
2023-05-16T03:34:36.777Z,9.38
2023-05-16T03:37:03.623Z,9.38
2023-05-16T03:39:30.271Z,9.21
2023-05-16T03:41:57.442Z,9.14
2023-05-16T03:44:24.315Z,9.15
2023-05-16T03:46:51.600Z,9.19
2023-05-16T03:49:18.551Z,9.15
2023-05-16T03:51:45.430Z,9.08
2023-05-16T03:54:12.020Z,8.97
2023-05-16T03:56:38.591Z,9.11
2023-05-16T03:59:07.303Z,9.08
2023-05-16T04:01:33.967Z,9.06
2023-05-16T04:04:00.592Z,9.08
2023-05-16T04:06:27.194Z,9.01
2023-05-16T04:08:53.822Z,9.09
2023-05-16T04:11:21.494Z,8.92
2023-05-16T04:13:48.252Z,8.92
2023-05-16T04:16:14.862Z,8.84
2023-05-16T04:18:41.541Z,8.94
2023-05-16T04:21:15.170Z,8.80
2023-05-16T04:23:42.015Z,9.03
2023-05-16T04:26:08.736Z,9.03
2023-05-16T04:28:36.081Z,8.91
2023-05-16T04:31:03.281Z,8.88
2023-05-16T04:33:30.163Z,8.88
2023-05-16T04:35:58.627Z,8.78
2023-05-16T04:38:25.876Z,8.72
2023-05-16T04:40:53.062Z,8.66
2023-05-16T04:43:20.183Z,8.62
2023-05-16T04:45:47.299Z,8.79
2023-05-16T04:48:14.045Z,8.68
2023-05-16T04:50:41.137Z,8.87
2023-05-16T04:53:10.570Z,8.75
2023-05-16T04:55:37.294Z,8.82
2023-05-16T04:58:04.141Z,8.85
2023-05-16T05:00:30.795Z,8.82
2023-05-16T05:02:57.619Z,8.72
2023-05-16T05:05:24.385Z,8.76
2023-05-16T05:07:51.580Z,8.79
2023-05-16T05:10:18.668Z,8.65
2023-05-16T05:12:45.392Z,8.71
2023-05-16T05:15:12.327Z,8.61
2023-05-16T05:17:39.331Z,8.59
2023-05-16T05:20:13.814Z,8.68
2023-05-16T05:22:40.900Z,8.70
2023-05-16T05:27:48.893Z,8.72
2023-05-16T05:30:16.337Z,8.60
2023-05-16T05:32:43.018Z,8.69
2023-05-16T05:35:09.666Z,8.74
2023-05-16T05:37:36.306Z,8.76
2023-05-16T05:40:03.388Z,8.70
2023-05-16T05:42:30.041Z,8.59
2023-05-16T05:44:56.733Z,8.78
2023-05-16T05:47:23.470Z,8.75
2023-05-16T05:49:50.755Z,8.95
2023-05-16T05:52:17.614Z,8.99
2023-05-16T05:54:44.346Z,8.96
2023-05-16T05:57:14.141Z,8.87
2023-05-16T05:59:40.850Z,8.91
2023-05-16T06:02:08.492Z,9.06
2023-05-16T06:04:35.247Z,8.82
2023-05-16T06:07:05.035Z,8.96
2023-05-16T06:09:32.104Z,8.95
2023-05-16T06:11:58.924Z,9.10
2023-05-16T06:24:17.260Z,9.35
2023-05-16T06:35:07.654Z,8.99
2023-05-16T06:37:34.895Z,8.83
2023-05-16T06:40:01.666Z,8.75
2023-05-16T06:42:28.415Z,8.82
2023-05-16T06:44:57.885Z,8.76
2023-05-16T06:47:25.297Z,8.61
2023-05-16T06:49:56.106Z,8.59
2023-05-16T06:52:23.135Z,8.66
2023-05-16T06:55:13.013Z,8.78
2023-05-16T06:57:45.073Z,8.57
2023-05-16T07:00:21.306Z,8.53
2023-05-16T07:02:48.058Z,8.74
2023-05-16T07:05:14.891Z,8.66
2023-05-16T07:07:41.790Z,8.64
2023-05-16T07:10:08.874Z,8.62
2023-05-16T07:12:39.781Z,8.68
2023-05-16T07:15:07.072Z,8.65
2023-05-16T07:17:33.924Z,8.81
2023-05-16T07:20:02.255Z,8.66
2023-05-16T07:22:31.215Z,8.66
2023-05-16T07:25:01.211Z,8.74
2023-05-16T07:27:28.651Z,8.72
2023-05-16T07:29:55.577Z,8.60
2023-05-16T07:32:22.360Z,8.58
2023-05-16T07:34:49.249Z,8.57
2023-05-16T07:37:16.527Z,8.51
2023-05-16T07:39:43.712Z,8.34
2023-05-16T07:42:13.180Z,8.38
2023-05-16T07:44:40.190Z,8.41
2023-05-16T07:47:08.758Z,8.34
2023-05-16T07:49:36.565Z,8.32
2023-05-16T07:52:03.626Z,8.52
2023-05-16T07:54:35.346Z,8.52
2023-05-16T07:57:02.567Z,8.54
2023-05-16T07:59:29.532Z,8.73
2023-05-16T08:01:56.775Z,8.80
2023-05-16T08:04:23.562Z,8.81
2023-05-16T08:06:50.319Z,8.97
2023-05-16T08:09:17.054Z,8.86
2023-05-16T08:11:45.878Z,8.97
2023-05-16T08:14:15.965Z,8.81
2023-05-16T08:16:44.716Z,8.60
2023-05-16T08:19:14.784Z,8.66
2023-05-16T08:21:44.037Z,8.52
2023-05-16T08:24:11.804Z,8.50
2023-05-16T08:26:38.773Z,8.50
2023-05-16T08:29:05.544Z,8.43
2023-05-16T08:31:34.739Z,8.56
2023-05-16T08:34:04.897Z,8.80
2023-05-16T08:36:31.804Z,8.57
2023-05-16T08:38:58.465Z,8.67
2023-05-16T08:41:26.069Z,8.80
2023-05-16T08:43:53.139Z,8.60
2023-05-16T08:46:23.142Z,8.49
2023-05-16T08:48:53.119Z,8.36
2023-05-16T08:51:25.300Z,8.46
2023-05-16T08:54:01.532Z,8.57
2023-05-16T08:56:28.513Z,8.76
2023-05-16T08:58:56.408Z,8.82
2023-05-16T09:01:23.515Z,8.66
2023-05-16T09:03:51.305Z,8.75
2023-05-16T09:06:18.134Z,8.97
2023-05-16T09:08:48.520Z,8.71
2023-05-16T09:11:15.259Z,8.77
2023-05-16T09:13:44.946Z,8.47
2023-05-16T09:16:19.936Z,8.55
2023-05-16T09:18:57.983Z,8.58
2023-05-16T09:21:32.980Z,8.76
2023-05-16T09:24:05.975Z,8.68
2023-05-16T09:26:38.611Z,8.86
2023-05-16T09:29:17.463Z,8.83
2023-05-16T09:31:44.264Z,8.86
2023-05-16T09:34:12.945Z,8.93
2023-05-16T09:36:42.154Z,8.91
2023-05-16T09:39:17.964Z,9.16
2023-05-16T09:41:44.978Z,9.11
2023-05-16T09:44:14.897Z,8.99
2023-05-16T09:46:45.094Z,9.08
2023-05-16T10:52:18.462Z,9.69
2023-05-16T10:54:52.817Z,9.72
2023-05-16T10:57:22.971Z,9.54
2023-05-16T10:59:53.614Z,9.81
2023-05-16T11:02:39.100Z,9.73
2023-05-16T11:05:08.727Z,9.70
2023-05-16T11:07:44.066Z,9.66
2023-05-16T11:10:16.117Z,9.83
2023-05-16T11:39:36.393Z,9.86
2023-05-16T11:56:05.825Z,10.45
2023-05-16T11:58:33.312Z,10.78
2023-05-16T12:01:03.490Z,10.70
2023-05-16T12:03:39.424Z,10.73
2023-05-16T12:15:01.175Z,10.40
2023-05-16T12:26:08.827Z,10.47
2023-05-16T12:28:54.320Z,10.34
2023-05-16T12:31:31.047Z,10.43
2023-05-16T12:33:59.771Z,10.64
2023-05-16T12:36:26.694Z,10.83
2023-05-16T12:38:53.784Z,11.07
2023-05-16T12:41:23.780Z,11.08
2023-05-16T12:43:50.612Z,11.12
2023-05-16T12:46:19.881Z,10.99
2023-05-16T12:48:48.137Z,10.90
2023-05-16T12:51:17.369Z,10.98
2023-05-16T12:54:01.412Z,11.03
2023-05-16T12:56:36.171Z,11.11
2023-05-16T12:59:03.607Z,11.22
2023-05-16T13:01:30.710Z,11.23
2023-05-16T13:03:57.870Z,11.40
2023-05-16T13:06:24.743Z,11.59
2023-05-16T13:08:53.633Z,11.59
2023-05-16T13:11:21.021Z,11.66
2023-05-16T13:13:47.944Z,11.63
2023-05-16T13:16:15.582Z,11.78
2023-05-16T13:18:44.891Z,11.74
2023-05-16T13:21:14.288Z,11.66
2023-05-16T13:23:41.034Z,11.79
2023-05-16T13:26:10.575Z,11.57
2023-05-16T13:28:37.642Z,11.81
2023-05-16T13:31:04.802Z,11.84
2023-05-16T13:33:33.788Z,11.90
2023-05-16T13:36:00.541Z,12.06
2023-05-16T13:38:27.279Z,12.30
2023-05-16T13:40:56.212Z,12.35
2023-05-16T13:43:22.885Z,12.40
2023-05-16T13:45:50.070Z,12.22
2023-05-16T13:48:17.243Z,12.37
2023-05-16T13:50:44.761Z,12.63
2023-05-16T13:53:14.400Z,12.45
2023-05-16T13:55:41.181Z,12.57
2023-05-16T13:58:07.897Z,12.70
2023-05-16T14:00:44.340Z,12.92
2023-05-16T14:03:12.444Z,13.21
2023-05-16T14:05:39.523Z,13.28
2023-05-16T14:08:06.817Z,13.61
2023-05-16T14:10:34.123Z,13.70
2023-05-16T14:13:00.774Z,14.52
2023-05-16T14:15:28.187Z,15.37
2023-05-16T14:17:55.273Z,16.25
2023-05-16T14:20:25.681Z,16.76
2023-05-16T14:30:49.240Z,15.96
2023-05-16T14:33:19.233Z,15.64
2023-05-16T14:35:46.453Z,16.00
2023-05-16T14:38:14.627Z,17.22
2023-05-16T14:40:41.272Z,18.08
2023-05-16T14:43:08.983Z,17.70
2023-05-16T14:45:35.859Z,17.57
2023-05-16T14:48:37.830Z,16.91
2023-05-16T14:51:05.343Z,15.93
2023-05-16T14:53:32.128Z,15.90
2023-05-16T14:55:59.706Z,16.01
2023-05-16T14:58:27.332Z,15.83
2023-05-16T15:00:54.771Z,15.82
2023-05-16T15:03:21.491Z,15.73
2023-05-16T15:05:48.465Z,16.41
2023-05-16T15:08:28.388Z,17.11
2023-05-16T15:10:55.798Z,16.74
2023-05-16T15:13:27.556Z,16.15
2023-05-16T15:15:54.414Z,15.95
2023-05-16T15:18:24.370Z,15.96
2023-05-16T15:20:53.477Z,16.07
2023-05-16T15:23:20.338Z,16.32
2023-05-16T15:25:47.165Z,16.06
2023-05-16T15:28:13.985Z,15.81
2023-05-16T15:30:40.994Z,15.74
2023-05-16T15:33:07.811Z,15.37
2023-05-16T15:35:34.640Z,15.27
2023-05-16T15:38:01.715Z,15.36
2023-05-16T15:40:28.958Z,15.36
2023-05-16T15:42:56.256Z,15.08
2023-05-16T15:48:04.370Z,14.61
2023-05-16T15:50:31.258Z,14.63
2023-05-16T15:52:58.409Z,14.65
2023-05-16T15:55:25.579Z,15.17
2023-05-16T15:57:57.408Z,16.13
2023-05-16T16:00:25.080Z,16.42
2023-05-16T16:02:52.207Z,16.82
2023-05-16T16:05:19.718Z,16.59
2023-05-16T16:07:49.592Z,16.90
2023-05-16T16:10:19.456Z,16.71
2023-05-16T16:13:02.030Z,15.68
2023-05-16T16:15:32.046Z,15.28
2023-05-16T16:18:00.963Z,15.43
2023-05-16T16:20:28.297Z,15.98
2023-05-16T16:22:54.996Z,15.79
2023-05-16T16:25:21.758Z,15.59
2023-05-16T16:27:48.679Z,15.12
2023-05-16T16:30:18.573Z,14.80
2023-05-16T16:32:47.531Z,14.63
2023-05-16T16:35:14.928Z,14.83
2023-05-16T16:53:36.481Z,14.63
2023-05-16T16:56:06.979Z,14.37
2023-05-16T16:58:34.909Z,14.18
2023-05-16T17:01:01.956Z,14.16
2023-05-16T17:03:28.790Z,13.93
2023-05-16T17:05:55.524Z,14.57
2023-05-16T17:08:28.931Z,14.90
2023-05-16T17:10:55.764Z,14.80
2023-05-16T17:13:22.592Z,14.46
2023-05-16T17:15:49.335Z,14.43
2023-05-16T17:18:18.229Z,14.61
2023-05-16T17:20:44.917Z,14.68
2023-05-16T17:23:11.576Z,14.29
2023-05-16T17:25:41.488Z,14.14
2023-05-16T17:28:08.260Z,14.14
2023-05-16T17:30:41.456Z,14.12
2023-05-16T17:33:14.143Z,14.27
2023-05-16T17:35:42.145Z,14.09
2023-05-16T17:38:12.957Z,13.82
2023-05-16T17:40:41.976Z,13.71
2023-05-16T17:43:10.088Z,13.50
2023-05-16T17:45:41.380Z,13.55
2023-05-16T17:51:05.623Z,13.45
2023-05-16T17:56:34.223Z,12.87
2023-05-16T17:59:04.058Z,12.91
2023-05-16T18:04:32.533Z,12.84
2023-05-16T19:43:27.457Z,10.92
2023-05-16T19:46:06.399Z,11.06
2023-05-16T19:48:33.169Z,11.01
2023-05-16T19:51:00.044Z,10.99
2023-05-16T19:53:26.785Z,10.99
2023-05-16T19:55:53.566Z,11.04
2023-05-16T19:58:20.362Z,10.99
2023-05-16T20:00:47.262Z,10.97
2023-05-16T20:03:14.172Z,10.90
2023-05-16T20:05:43.824Z,10.62
2023-05-16T20:08:12.293Z,10.67
2023-05-16T20:10:39.997Z,10.71
2023-05-16T20:13:06.630Z,10.60
2023-05-16T20:15:33.497Z,10.41
2023-05-16T20:18:00.840Z,10.63
2023-05-16T20:20:45.834Z,10.55
2023-05-16T20:23:29.905Z,10.38
2023-05-16T20:25:56.863Z,10.38
2023-05-16T20:28:23.817Z,10.50
2023-05-16T20:30:51.433Z,10.45
2023-05-16T20:33:20.107Z,10.43
2023-05-16T20:35:51.084Z,10.33
2023-05-16T20:38:17.868Z,10.47
2023-05-16T20:40:49.900Z,10.36
2023-05-16T20:43:17.184Z,10.31
2023-05-16T20:45:44.979Z,10.23
2023-05-16T20:48:12.644Z,10.17
2023-05-16T20:50:39.930Z,10.32
2023-05-16T20:53:07.136Z,10.19
2023-05-16T20:55:42.061Z,10.22
2023-05-16T20:58:10.635Z,9.91
2023-05-16T21:00:37.995Z,9.91
2023-05-16T21:03:08.310Z,9.88
2023-05-16T21:05:36.653Z,9.95
2023-05-16T21:08:03.539Z,9.82
2023-05-16T21:13:12.553Z,9.70
2023-05-16T21:15:40.039Z,9.75
2023-05-16T21:18:08.303Z,9.86
2023-05-16T21:20:35.549Z,9.94
2023-05-16T21:23:03.832Z,9.99
2023-05-16T21:25:43.708Z,9.73
2023-05-16T21:28:11.183Z,9.83
2023-05-16T21:30:38.293Z,9.79
2023-05-16T21:33:06.935Z,9.81
2023-05-16T21:35:50.377Z,9.92
2023-05-16T21:38:17.561Z,9.75
2023-05-16T21:41:06.534Z,9.61
2023-05-16T21:43:34.298Z,9.56
2023-05-16T21:46:05.719Z,9.48
2023-05-16T21:48:34.398Z,9.31
2023-05-16T21:51:03.299Z,9.31
2023-05-16T21:53:35.137Z,9.46
2023-05-16T21:56:02.752Z,9.20
2023-05-16T21:58:29.597Z,9.23
2023-05-16T22:00:58.741Z,9.33
2023-05-16T22:03:25.986Z,9.23
2023-05-16T22:05:54.993Z,9.38
2023-05-16T22:08:22.852Z,9.30
2023-05-16T22:10:52.720Z,9.33
2023-05-16T22:13:37.611Z,9.41
2023-05-16T22:16:07.993Z,9.29
2023-05-16T22:18:35.685Z,9.30
2023-05-16T22:21:02.621Z,9.29
2023-05-16T22:23:29.253Z,9.32
2023-05-16T22:25:56.091Z,9.33
2023-05-16T22:28:26.288Z,9.49
2023-05-16T22:30:56.134Z,9.38
2023-05-16T22:33:26.267Z,9.26
2023-05-16T22:35:56.321Z,9.39
2023-05-16T22:38:24.204Z,9.43
2023-05-16T22:40:51.293Z,9.37
2023-05-16T22:43:20.155Z,9.35
2023-05-16T22:45:46.909Z,9.17
2023-05-16T22:48:13.694Z,9.34
2023-05-16T22:50:40.557Z,9.24
2023-05-16T22:53:07.129Z,9.24
2023-05-16T22:55:35.019Z,9.25
2023-05-16T22:58:01.761Z,9.26
2023-05-16T23:00:28.443Z,9.03
2023-05-16T23:02:55.248Z,8.71
2023-05-16T23:05:22.011Z,8.90
2023-05-16T23:07:48.692Z,8.75
2023-05-16T23:10:15.469Z,8.74
2023-05-16T23:12:42.155Z,8.76
2023-05-16T23:15:10.400Z,8.48
2023-05-16T23:17:38.548Z,8.43
2023-05-16T23:20:07.029Z,8.52
2023-05-16T23:22:33.972Z,8.51
2023-05-16T23:25:00.715Z,8.45
2023-05-16T23:27:27.428Z,8.33
2023-05-16T23:29:56.095Z,8.19
2023-05-16T23:32:22.815Z,8.08
2023-05-16T23:34:49.689Z,8.20
2023-05-16T23:37:16.598Z,8.02
2023-05-16T23:39:43.235Z,8.20
2023-05-16T23:42:09.809Z,8.26
2023-05-16T23:44:36.543Z,8.32
2023-05-16T23:47:03.412Z,8.27
2023-05-16T23:49:30.103Z,8.16
2023-05-16T23:51:59.903Z,8.02
2023-05-16T23:54:29.741Z,7.94
2023-05-16T23:56:57.017Z,7.99
2023-05-16T23:59:23.668Z,7.87
